sensor_id;sensor_type;location;lat;lon;timestamp;temperature;humidity
15543;DHT22;7873;52.230;12.856;2022-08-06T00:01:06;24.40;45.20
15543;DHT22;7873;52.230;12.856;2022-08-06T00:03:33;24.40;44.80
15543;DHT22;7873;52.230;12.856;2022-08-06T00:06:01;24.30;45.10
15543;DHT22;7873;52.230;12.856;2022-08-06T00:08:27;24.30;44.90
15543;DHT22;7873;52.230;12.856;2022-08-06T00:10:54;24.30;44.40
15543;DHT22;7873;52.230;12.856;2022-08-06T00:13:21;24.20;44.40
15543;DHT22;7873;52.230;12.856;2022-08-06T00:15:47;24.30;44.80
15543;DHT22;7873;52.230;12.856;2022-08-06T00:18:14;24.30;44.20
15543;DHT22;7873;52.230;12.856;2022-08-06T00:20:41;24.10;44.50
15543;DHT22;7873;52.230;12.856;2022-08-06T00:23:09;24.10;44.30
15543;DHT22;7873;52.230;12.856;2022-08-06T00:25:36;24.10;44.70
15543;DHT22;7873;52.230;12.856;2022-08-06T00:28:03;24.20;44.50
15543;DHT22;7873;52.230;12.856;2022-08-06T00:30:30;24.20;44.20
15543;DHT22;7873;52.230;12.856;2022-08-06T00:32:57;24.10;44.00
15543;DHT22;7873;52.230;12.856;2022-08-06T00:35:23;24.10;44.30
15543;DHT22;7873;52.230;12.856;2022-08-06T00:37:50;24.10;44.30
15543;DHT22;7873;52.230;12.856;2022-08-06T00:40:18;24.00;44.50
15543;DHT22;7873;52.230;12.856;2022-08-06T00:42:47;24.10;44.30
15543;DHT22;7873;52.230;12.856;2022-08-06T00:45:14;24.10;44.60
15543;DHT22;7873;52.230;12.856;2022-08-06T00:47:40;24.10;44.20
15543;DHT22;7873;52.230;12.856;2022-08-06T00:50:07;24.10;44.00
15543;DHT22;7873;52.230;12.856;2022-08-06T00:52:34;24.10;44.20
15543;DHT22;7873;52.230;12.856;2022-08-06T00:55:01;24.10;44.30
15543;DHT22;7873;52.230;12.856;2022-08-06T00:57:29;24.00;44.20
15543;DHT22;7873;52.230;12.856;2022-08-06T00:59:56;23.90;44.20
15543;DHT22;7873;52.230;12.856;2022-08-06T01:02:22;23.90;44.30
15543;DHT22;7873;52.230;12.856;2022-08-06T01:04:49;24.00;44.20
15543;DHT22;7873;52.230;12.856;2022-08-06T01:07:16;24.00;44.20
15543;DHT22;7873;52.230;12.856;2022-08-06T01:09:43;23.90;44.00
15543;DHT22;7873;52.230;12.856;2022-08-06T01:12:09;23.90;43.90
15543;DHT22;7873;52.230;12.856;2022-08-06T01:14:37;23.80;44.30
15543;DHT22;7873;52.230;12.856;2022-08-06T01:17:05;23.90;44.50
15543;DHT22;7873;52.230;12.856;2022-08-06T01:19:40;23.90;44.20
15543;DHT22;7873;52.230;12.856;2022-08-06T01:22:13;23.80;44.50
15543;DHT22;7873;52.230;12.856;2022-08-06T01:27:46;23.80;44.10
15543;DHT22;7873;52.230;12.856;2022-08-06T01:30:19;23.80;44.50
15543;DHT22;7873;52.230;12.856;2022-08-06T01:32:51;23.70;44.70
15543;DHT22;7873;52.230;12.856;2022-08-06T01:35:21;23.60;45.10
15543;DHT22;7873;52.230;12.856;2022-08-06T01:37:53;23.70;44.80
15543;DHT22;7873;52.230;12.856;2022-08-06T01:40:25;23.60;44.80
15543;DHT22;7873;52.230;12.856;2022-08-06T01:42:58;23.50;44.90
15543;DHT22;7873;52.230;12.856;2022-08-06T01:45:27;23.50;44.90
15543;DHT22;7873;52.230;12.856;2022-08-06T01:47:58;23.70;44.60
15543;DHT22;7873;52.230;12.856;2022-08-06T01:50:30;23.60;44.50
15543;DHT22;7873;52.230;12.856;2022-08-06T01:52:59;23.60;44.80
15543;DHT22;7873;52.230;12.856;2022-08-06T01:55:28;23.40;45.40
15543;DHT22;7873;52.230;12.856;2022-08-06T01:58:06;23.40;45.40
15543;DHT22;7873;52.230;12.856;2022-08-06T02:00:37;23.40;45.20
15543;DHT22;7873;52.230;12.856;2022-08-06T02:03:07;23.50;45.30
15543;DHT22;7873;52.230;12.856;2022-08-06T02:05:38;23.30;45.30
15543;DHT22;7873;52.230;12.856;2022-08-06T02:08:06;23.30;45.60
15543;DHT22;7873;52.230;12.856;2022-08-06T02:10:37;23.20;45.80
15543;DHT22;7873;52.230;12.856;2022-08-06T02:13:06;23.30;45.30
15543;DHT22;7873;52.230;12.856;2022-08-06T02:15:36;23.30;45.50
15543;DHT22;7873;52.230;12.856;2022-08-06T02:18:04;23.30;45.40
15543;DHT22;7873;52.230;12.856;2022-08-06T02:20:34;23.30;45.40
15543;DHT22;7873;52.230;12.856;2022-08-06T02:23:04;23.20;45.70
15543;DHT22;7873;52.230;12.856;2022-08-06T02:25:32;23.20;45.60
15543;DHT22;7873;52.230;12.856;2022-08-06T02:28:02;23.20;45.50
15543;DHT22;7873;52.230;12.856;2022-08-06T02:30:34;23.20;45.50
15543;DHT22;7873;52.230;12.856;2022-08-06T02:33:03;23.10;45.90
15543;DHT22;7873;52.230;12.856;2022-08-06T02:35:30;23.10;45.80
15543;DHT22;7873;52.230;12.856;2022-08-06T02:38:00;23.10;45.80
15543;DHT22;7873;52.230;12.856;2022-08-06T02:40:32;23.10;46.00
15543;DHT22;7873;52.230;12.856;2022-08-06T02:43:02;23.10;45.80
15543;DHT22;7873;52.230;12.856;2022-08-06T02:45:36;23.10;45.90
15543;DHT22;7873;52.230;12.856;2022-08-06T02:48:07;23.10;45.80
15543;DHT22;7873;52.230;12.856;2022-08-06T02:50:39;23.10;45.90
15543;DHT22;7873;52.230;12.856;2022-08-06T02:53:08;23.00;46.10
15543;DHT22;7873;52.230;12.856;2022-08-06T02:55:38;22.90;46.30
15543;DHT22;7873;52.230;12.856;2022-08-06T02:58:10;22.90;46.20
15543;DHT22;7873;52.230;12.856;2022-08-06T03:00:41;22.90;46.30
15543;DHT22;7873;52.230;12.856;2022-08-06T03:03:10;22.80;46.30
15543;DHT22;7873;52.230;12.856;2022-08-06T03:05:39;22.80;46.50
15543;DHT22;7873;52.230;12.856;2022-08-06T03:08:10;22.90;46.40
15543;DHT22;7873;52.230;12.856;2022-08-06T03:10:41;22.90;46.30
15543;DHT22;7873;52.230;12.856;2022-08-06T03:13:09;22.90;46.30
15543;DHT22;7873;52.230;12.856;2022-08-06T03:15:37;22.80;46.60
15543;DHT22;7873;52.230;12.856;2022-08-06T03:18:07;22.70;46.80
15543;DHT22;7873;52.230;12.856;2022-08-06T03:20:34;22.80;46.80
15543;DHT22;7873;52.230;12.856;2022-08-06T03:23:03;22.60;46.90
15543;DHT22;7873;52.230;12.856;2022-08-06T03:25:34;22.60;47.00
15543;DHT22;7873;52.230;12.856;2022-08-06T03:28:02;22.60;47.00
15543;DHT22;7873;52.230;12.856;2022-08-06T03:30:29;22.70;46.90
15543;DHT22;7873;52.230;12.856;2022-08-06T03:32:57;22.60;47.10
15543;DHT22;7873;52.230;12.856;2022-08-06T03:35:26;22.60;46.90
15543;DHT22;7873;52.230;12.856;2022-08-06T03:37:53;22.60;47.10
15543;DHT22;7873;52.230;12.856;2022-08-06T03:40:22;22.60;47.00
15543;DHT22;7873;52.230;12.856;2022-08-06T03:42:50;22.40;47.30
15543;DHT22;7873;52.230;12.856;2022-08-06T03:45:16;22.20;48.40
15543;DHT22;7873;52.230;12.856;2022-08-06T03:47:48;22.20;48.80
15543;DHT22;7873;52.230;12.856;2022-08-06T03:50:20;22.30;48.50
15543;DHT22;7873;52.230;12.856;2022-08-06T03:52:53;22.50;48.30
15543;DHT22;7873;52.230;12.856;2022-08-06T03:55:25;22.70;47.80
15543;DHT22;7873;52.230;12.856;2022-08-06T03:57:55;22.90;48.10
15543;DHT22;7873;52.230;12.856;2022-08-06T04:00:25;23.00;47.80
15543;DHT22;7873;52.230;12.856;2022-08-06T04:02:53;23.00;47.60
15543;DHT22;7873;52.230;12.856;2022-08-06T04:05:23;23.00;47.90
15543;DHT22;7873;52.230;12.856;2022-08-06T04:07:52;22.80;48.20
15543;DHT22;7873;52.230;12.856;2022-08-06T04:10:20;23.00;48.10
15543;DHT22;7873;52.230;12.856;2022-08-06T04:12:47;23.10;48.50
15543;DHT22;7873;52.230;12.856;2022-08-06T04:15:14;23.20;48.30
15543;DHT22;7873;52.230;12.856;2022-08-06T04:17:42;23.20;48.20
15543;DHT22;7873;52.230;12.856;2022-08-06T04:20:13;23.20;48.50
15543;DHT22;7873;52.230;12.856;2022-08-06T04:22:42;23.20;48.60
15543;DHT22;7873;52.230;12.856;2022-08-06T04:25:11;23.30;49.10
15543;DHT22;7873;52.230;12.856;2022-08-06T04:27:38;23.40;48.50
15543;DHT22;7873;52.230;12.856;2022-08-06T04:30:07;23.40;48.40
15543;DHT22;7873;52.230;12.856;2022-08-06T04:32:34;23.50;48.60
15543;DHT22;7873;52.230;12.856;2022-08-06T04:35:03;23.60;48.70
15543;DHT22;7873;52.230;12.856;2022-08-06T04:37:32;23.50;48.30
15543;DHT22;7873;52.230;12.856;2022-08-06T04:39:59;23.50;48.30
15543;DHT22;7873;52.230;12.856;2022-08-06T04:42:28;23.50;48.70
15543;DHT22;7873;52.230;12.856;2022-08-06T04:44:55;23.50;48.70
15543;DHT22;7873;52.230;12.856;2022-08-06T04:47:22;23.50;48.70
15543;DHT22;7873;52.230;12.856;2022-08-06T04:49:50;23.50;48.60
15543;DHT22;7873;52.230;12.856;2022-08-06T04:52:20;23.50;48.50
15543;DHT22;7873;52.230;12.856;2022-08-06T04:54:47;23.50;48.60
15543;DHT22;7873;52.230;12.856;2022-08-06T04:57:14;23.50;49.10
15543;DHT22;7873;52.230;12.856;2022-08-06T04:59:42;23.60;49.20
15543;DHT22;7873;52.230;12.856;2022-08-06T05:02:09;23.70;48.50
15543;DHT22;7873;52.230;12.856;2022-08-06T05:04:36;23.60;47.90
15543;DHT22;7873;52.230;12.856;2022-08-06T05:07:06;23.50;48.50
15543;DHT22;7873;52.230;12.856;2022-08-06T05:09:36;23.40;49.10
15543;DHT22;7873;52.230;12.856;2022-08-06T05:12:03;23.40;48.40
15543;DHT22;7873;52.230;12.856;2022-08-06T05:14:35;23.20;48.50
15543;DHT22;7873;52.230;12.856;2022-08-06T05:17:06;23.10;48.80
15543;DHT22;7873;52.230;12.856;2022-08-06T05:19:36;23.00;48.60
15543;DHT22;7873;52.230;12.856;2022-08-06T05:22:07;23.10;47.70
15543;DHT22;7873;52.230;12.856;2022-08-06T05:24:37;23.00;47.60
15543;DHT22;7873;52.230;12.856;2022-08-06T05:27:04;22.90;47.60
15543;DHT22;7873;52.230;12.856;2022-08-06T05:29:31;23.00;47.60
15543;DHT22;7873;52.230;12.856;2022-08-06T05:31:58;22.70;47.60
15543;DHT22;7873;52.230;12.856;2022-08-06T05:34:28;22.40;48.50
15543;DHT22;7873;52.230;12.856;2022-08-06T05:36:55;22.40;48.80
15543;DHT22;7873;52.230;12.856;2022-08-06T05:39:21;22.70;48.40
15543;DHT22;7873;52.230;12.856;2022-08-06T05:41:48;22.80;48.10
15543;DHT22;7873;52.230;12.856;2022-08-06T05:44:15;23.00;47.80
15543;DHT22;7873;52.230;12.856;2022-08-06T05:46:44;23.00;47.70
15543;DHT22;7873;52.230;12.856;2022-08-06T05:49:17;23.10;47.60
15543;DHT22;7873;52.230;12.856;2022-08-06T05:51:51;23.20;47.70
15543;DHT22;7873;52.230;12.856;2022-08-06T05:54:25;23.20;47.80
15543;DHT22;7873;52.230;12.856;2022-08-06T05:56:58;23.20;47.70
15543;DHT22;7873;52.230;12.856;2022-08-06T05:59:32;23.20;47.80
15543;DHT22;7873;52.230;12.856;2022-08-06T06:02:04;23.30;47.70
15543;DHT22;7873;52.230;12.856;2022-08-06T06:04:35;23.20;47.80
15543;DHT22;7873;52.230;12.856;2022-08-06T06:07:06;23.20;47.80
15543;DHT22;7873;52.230;12.856;2022-08-06T06:09:35;23.20;48.30
15543;DHT22;7873;52.230;12.856;2022-08-06T06:12:02;23.20;48.60
15543;DHT22;7873;52.230;12.856;2022-08-06T06:14:33;23.20;49.10
15543;DHT22;7873;52.230;12.856;2022-08-06T06:17:13;23.20;48.10
15543;DHT22;7873;52.230;12.856;2022-08-06T06:19:49;23.20;47.90
15543;DHT22;7873;52.230;12.856;2022-08-06T06:22:27;23.20;47.80
15543;DHT22;7873;52.230;12.856;2022-08-06T06:25:01;23.20;48.70
15543;DHT22;7873;52.230;12.856;2022-08-06T06:27:33;23.30;48.40
15543;DHT22;7873;52.230;12.856;2022-08-06T06:30:10;23.40;48.80
15543;DHT22;7873;52.230;12.856;2022-08-06T06:32:44;23.50;48.30
15543;DHT22;7873;52.230;12.856;2022-08-06T06:35:19;23.50;48.30
15543;DHT22;7873;52.230;12.856;2022-08-06T06:38:00;23.40;48.00
15543;DHT22;7873;52.230;12.856;2022-08-06T06:40:41;23.30;48.30
15543;DHT22;7873;52.230;12.856;2022-08-06T06:43:14;23.20;48.50
15543;DHT22;7873;52.230;12.856;2022-08-06T06:45:46;23.20;48.30
15543;DHT22;7873;52.230;12.856;2022-08-06T06:48:18;23.20;48.20
15543;DHT22;7873;52.230;12.856;2022-08-06T06:50:49;23.20;48.20
15543;DHT22;7873;52.230;12.856;2022-08-06T06:53:20;23.20;47.90
15543;DHT22;7873;52.230;12.856;2022-08-06T06:55:49;23.00;48.30
15543;DHT22;7873;52.230;12.856;2022-08-06T06:58:20;23.10;48.50
15543;DHT22;7873;52.230;12.856;2022-08-06T07:00:52;23.00;48.40
15543;DHT22;7873;52.230;12.856;2022-08-06T07:03:19;23.10;48.60
15543;DHT22;7873;52.230;12.856;2022-08-06T07:05:50;23.10;48.40
15543;DHT22;7873;52.230;12.856;2022-08-06T07:08:20;23.10;48.30
15543;DHT22;7873;52.230;12.856;2022-08-06T07:10:49;23.10;48.30
15543;DHT22;7873;52.230;12.856;2022-08-06T07:13:16;23.10;48.30
15543;DHT22;7873;52.230;12.856;2022-08-06T07:15:46;23.10;48.30
15543;DHT22;7873;52.230;12.856;2022-08-06T07:18:14;23.10;48.30
15543;DHT22;7873;52.230;12.856;2022-08-06T07:20:42;23.10;48.20
15543;DHT22;7873;52.230;12.856;2022-08-06T07:23:10;23.10;48.20
15543;DHT22;7873;52.230;12.856;2022-08-06T07:25:39;23.10;48.30
15543;DHT22;7873;52.230;12.856;2022-08-06T07:28:08;23.10;48.20
15543;DHT22;7873;52.230;12.856;2022-08-06T07:30:36;23.10;48.20
15543;DHT22;7873;52.230;12.856;2022-08-06T07:33:04;23.00;48.30
15543;DHT22;7873;52.230;12.856;2022-08-06T07:35:31;23.00;48.20
15543;DHT22;7873;52.230;12.856;2022-08-06T07:37:59;23.10;48.20
15543;DHT22;7873;52.230;12.856;2022-08-06T07:40:28;23.00;48.10
15543;DHT22;7873;52.230;12.856;2022-08-06T07:43:00;23.00;48.00
15543;DHT22;7873;52.230;12.856;2022-08-06T07:45:31;23.00;48.10
15543;DHT22;7873;52.230;12.856;2022-08-06T07:47:59;23.00;48.00
15543;DHT22;7873;52.230;12.856;2022-08-06T07:50:30;23.00;48.00
15543;DHT22;7873;52.230;12.856;2022-08-06T07:52:57;23.00;48.10
15543;DHT22;7873;52.230;12.856;2022-08-06T07:55:25;23.00;48.00
15543;DHT22;7873;52.230;12.856;2022-08-06T07:57:53;22.80;48.60
15543;DHT22;7873;52.230;12.856;2022-08-06T08:00:22;23.00;48.20
15543;DHT22;7873;52.230;12.856;2022-08-06T08:02:50;23.00;47.90
15543;DHT22;7873;52.230;12.856;2022-08-06T08:05:35;22.90;48.00
15543;DHT22;7873;52.230;12.856;2022-08-06T08:08:20;22.90;48.00
15543;DHT22;7873;52.230;12.856;2022-08-06T08:10:47;22.90;47.90
15543;DHT22;7873;52.230;12.856;2022-08-06T08:13:15;22.90;47.80
15543;DHT22;7873;52.230;12.856;2022-08-06T08:15:45;22.90;47.60
15543;DHT22;7873;52.230;12.856;2022-08-06T08:18:13;22.90;47.70
15543;DHT22;7873;52.230;12.856;2022-08-06T08:20:40;22.90;47.60
15543;DHT22;7873;52.230;12.856;2022-08-06T08:23:09;22.90;47.60
15543;DHT22;7873;52.230;12.856;2022-08-06T08:25:38;23.00;47.60
15543;DHT22;7873;52.230;12.856;2022-08-06T08:28:05;23.00;47.50
15543;DHT22;7873;52.230;12.856;2022-08-06T08:30:33;22.90;47.40
15543;DHT22;7873;52.230;12.856;2022-08-06T08:33:01;22.80;47.40
15543;DHT22;7873;52.230;12.856;2022-08-06T08:35:27;22.90;47.40
15543;DHT22;7873;52.230;12.856;2022-08-06T08:37:54;22.90;47.30
15543;DHT22;7873;52.230;12.856;2022-08-06T08:40:21;23.00;47.30
15543;DHT22;7873;52.230;12.856;2022-08-06T08:42:48;23.00;47.10
15543;DHT22;7873;52.230;12.856;2022-08-06T08:45:18;23.00;47.20
15543;DHT22;7873;52.230;12.856;2022-08-06T08:47:46;23.00;47.20
15543;DHT22;7873;52.230;12.856;2022-08-06T08:50:20;22.90;47.10
15543;DHT22;7873;52.230;12.856;2022-08-06T08:52:48;22.80;47.60
15543;DHT22;7873;52.230;12.856;2022-08-06T08:55:18;22.80;47.80
15543;DHT22;7873;52.230;12.856;2022-08-06T08:57:48;22.70;47.10
15543;DHT22;7873;52.230;12.856;2022-08-06T09:00:16;22.30;46.40
15543;DHT22;7873;52.230;12.856;2022-08-06T09:02:43;22.30;46.50
15543;DHT22;7873;52.230;12.856;2022-08-06T09:05:10;22.20;46.40
15543;DHT22;7873;52.230;12.856;2022-08-06T09:07:38;22.00;46.10
15543;DHT22;7873;52.230;12.856;2022-08-06T09:10:06;22.00;45.80
15543;DHT22;7873;52.230;12.856;2022-08-06T09:12:34;21.80;45.40
15543;DHT22;7873;52.230;12.856;2022-08-06T09:15:01;21.90;45.50
15543;DHT22;7873;52.230;12.856;2022-08-06T09:17:29;22.00;45.80
15543;DHT22;7873;52.230;12.856;2022-08-06T09:19:56;22.00;45.60
15543;DHT22;7873;52.230;12.856;2022-08-06T09:22:23;22.00;45.50
15543;DHT22;7873;52.230;12.856;2022-08-06T09:24:51;21.90;45.50
15543;DHT22;7873;52.230;12.856;2022-08-06T09:27:17;21.60;46.00
15543;DHT22;7873;52.230;12.856;2022-08-06T09:29:48;21.50;45.10
15543;DHT22;7873;52.230;12.856;2022-08-06T09:35:14;21.90;45.00
15543;DHT22;7873;52.230;12.856;2022-08-06T09:37:44;21.90;45.10
15543;DHT22;7873;52.230;12.856;2022-08-06T09:40:14;21.90;45.00
15543;DHT22;7873;52.230;12.856;2022-08-06T09:42:43;22.00;44.80
15543;DHT22;7873;52.230;12.856;2022-08-06T09:45:12;22.00;44.40
15543;DHT22;7873;52.230;12.856;2022-08-06T09:47:41;22.00;44.40
15543;DHT22;7873;52.230;12.856;2022-08-06T09:50:08;21.50;44.70
15543;DHT22;7873;52.230;12.856;2022-08-06T09:52:35;21.60;44.50
15543;DHT22;7873;52.230;12.856;2022-08-06T09:55:02;21.90;44.30
15543;DHT22;7873;52.230;12.856;2022-08-06T09:57:41;22.20;43.60
15543;DHT22;7873;52.230;12.856;2022-08-06T10:00:09;22.40;43.80
15543;DHT22;7873;52.230;12.856;2022-08-06T10:02:37;22.60;43.70
15543;DHT22;7873;52.230;12.856;2022-08-06T10:05:08;22.50;44.30
15543;DHT22;7873;52.230;12.856;2022-08-06T10:07:35;22.70;44.40
15543;DHT22;7873;52.230;12.856;2022-08-06T10:10:03;22.70;44.30
15543;DHT22;7873;52.230;12.856;2022-08-06T10:12:31;23.00;44.00
15543;DHT22;7873;52.230;12.856;2022-08-06T10:15:00;23.00;44.60
15543;DHT22;7873;52.230;12.856;2022-08-06T10:17:27;22.80;43.60
15543;DHT22;7873;52.230;12.856;2022-08-06T10:20:06;22.90;44.90
15543;DHT22;7873;52.230;12.856;2022-08-06T10:22:36;22.60;43.10
15543;DHT22;7873;52.230;12.856;2022-08-06T10:25:15;22.40;43.70
15543;DHT22;7873;52.230;12.856;2022-08-06T10:27:44;22.30;44.60
15543;DHT22;7873;52.230;12.856;2022-08-06T10:30:12;22.20;44.60
15543;DHT22;7873;52.230;12.856;2022-08-06T10:32:41;22.50;46.80
15543;DHT22;7873;52.230;12.856;2022-08-06T10:35:11;22.60;44.50
15543;DHT22;7873;52.230;12.856;2022-08-06T10:37:43;22.50;51.00
15543;DHT22;7873;52.230;12.856;2022-08-06T10:40:13;22.60;52.30
15543;DHT22;7873;52.230;12.856;2022-08-06T10:42:41;22.80;51.10
15543;DHT22;7873;52.230;12.856;2022-08-06T10:45:08;22.80;47.80
15543;DHT22;7873;52.230;12.856;2022-08-06T10:47:38;22.70;48.00
15543;DHT22;7873;52.230;12.856;2022-08-06T10:50:05;22.90;49.20
15543;DHT22;7873;52.230;12.856;2022-08-06T10:52:34;22.80;49.10
15543;DHT22;7873;52.230;12.856;2022-08-06T10:55:01;22.90;49.40
15543;DHT22;7873;52.230;12.856;2022-08-06T10:57:30;23.00;48.50
15543;DHT22;7873;52.230;12.856;2022-08-06T10:59:57;22.90;47.80
15543;DHT22;7873;52.230;12.856;2022-08-06T11:02:28;23.00;48.30
15543;DHT22;7873;52.230;12.856;2022-08-06T11:05:04;23.10;48.70
15543;DHT22;7873;52.230;12.856;2022-08-06T11:07:42;23.20;48.60
15543;DHT22;7873;52.230;12.856;2022-08-06T11:10:23;23.30;48.60
15543;DHT22;7873;52.230;12.856;2022-08-06T11:13:02;23.40;49.40
15543;DHT22;7873;52.230;12.856;2022-08-06T11:15:36;23.50;48.80
15543;DHT22;7873;52.230;12.856;2022-08-06T11:18:04;23.60;48.60
15543;DHT22;7873;52.230;12.856;2022-08-06T11:20:41;23.60;48.80
15543;DHT22;7873;52.230;12.856;2022-08-06T11:23:22;23.60;48.80
15543;DHT22;7873;52.230;12.856;2022-08-06T11:25:51;23.50;49.80
15543;DHT22;7873;52.230;12.856;2022-08-06T11:28:20;23.40;49.10
15543;DHT22;7873;52.230;12.856;2022-08-06T11:31:33;23.60;49.00
15543;DHT22;7873;52.230;12.856;2022-08-06T11:34:05;23.60;49.20
15543;DHT22;7873;52.230;12.856;2022-08-06T11:36:46;23.50;49.90
15543;DHT22;7873;52.230;12.856;2022-08-06T11:39:15;23.50;49.50
15543;DHT22;7873;52.230;12.856;2022-08-06T11:41:45;23.60;49.60
15543;DHT22;7873;52.230;12.856;2022-08-06T11:44:16;23.80;49.30
15543;DHT22;7873;52.230;12.856;2022-08-06T11:46:44;23.70;49.20
15543;DHT22;7873;52.230;12.856;2022-08-06T11:49:17;23.50;49.40
15543;DHT22;7873;52.230;12.856;2022-08-06T11:52:01;23.50;49.50
15543;DHT22;7873;52.230;12.856;2022-08-06T11:54:28;23.50;49.00
15543;DHT22;7873;52.230;12.856;2022-08-06T12:00:13;23.10;44.50
15543;DHT22;7873;52.230;12.856;2022-08-06T12:05:40;23.10;43.50
15543;DHT22;7873;52.230;12.856;2022-08-06T12:08:14;22.90;42.90
15543;DHT22;7873;52.230;12.856;2022-08-06T12:13:49;23.10;42.80
15543;DHT22;7873;52.230;12.856;2022-08-06T12:16:29;23.10;42.70
15543;DHT22;7873;52.230;12.856;2022-08-06T12:18:57;23.20;43.30
15543;DHT22;7873;52.230;12.856;2022-08-06T12:21:24;23.40;43.50
15543;DHT22;7873;52.230;12.856;2022-08-06T12:23:53;23.40;43.60
15543;DHT22;7873;52.230;12.856;2022-08-06T12:26:20;23.40;43.40
15543;DHT22;7873;52.230;12.856;2022-08-06T12:28:48;23.40;43.80
15543;DHT22;7873;52.230;12.856;2022-08-06T12:31:27;23.30;42.50
15543;DHT22;7873;52.230;12.856;2022-08-06T12:33:55;23.40;44.10
15543;DHT22;7873;52.230;12.856;2022-08-06T12:36:25;23.40;43.90
15543;DHT22;7873;52.230;12.856;2022-08-06T12:38:54;23.50;44.00
15543;DHT22;7873;52.230;12.856;2022-08-06T12:41:22;23.50;43.80
15543;DHT22;7873;52.230;12.856;2022-08-06T12:43:50;23.50;43.90
15543;DHT22;7873;52.230;12.856;2022-08-06T12:46:16;23.50;44.00
15543;DHT22;7873;52.230;12.856;2022-08-06T12:48:47;23.50;44.20
15543;DHT22;7873;52.230;12.856;2022-08-06T12:51:15;23.40;43.90
15543;DHT22;7873;52.230;12.856;2022-08-06T12:53:46;23.40;44.30
15543;DHT22;7873;52.230;12.856;2022-08-06T12:56:15;23.30;44.40
15543;DHT22;7873;52.230;12.856;2022-08-06T12:58:43;23.30;44.20
15543;DHT22;7873;52.230;12.856;2022-08-06T13:01:11;23.30;44.50
15543;DHT22;7873;52.230;12.856;2022-08-06T13:03:41;23.30;43.90
15543;DHT22;7873;52.230;12.856;2022-08-06T13:06:10;23.30;43.90
15543;DHT22;7873;52.230;12.856;2022-08-06T13:08:39;23.30;44.60
15543;DHT22;7873;52.230;12.856;2022-08-06T13:11:06;23.20;44.20
15543;DHT22;7873;52.230;12.856;2022-08-06T13:13:35;23.20;45.20
15543;DHT22;7873;52.230;12.856;2022-08-06T13:16:03;23.20;44.60
15543;DHT22;7873;52.230;12.856;2022-08-06T13:18:32;23.20;45.10
15543;DHT22;7873;52.230;12.856;2022-08-06T13:20:59;23.20;45.10
15543;DHT22;7873;52.230;12.856;2022-08-06T13:23:30;23.30;45.00
15543;DHT22;7873;52.230;12.856;2022-08-06T13:25:58;23.30;44.70
15543;DHT22;7873;52.230;12.856;2022-08-06T13:28:25;23.30;44.70
15543;DHT22;7873;52.230;12.856;2022-08-06T13:30:53;23.30;44.70
15543;DHT22;7873;52.230;12.856;2022-08-06T13:33:20;23.30;43.30
15543;DHT22;7873;52.230;12.856;2022-08-06T13:35:50;23.40;44.60
15543;DHT22;7873;52.230;12.856;2022-08-06T13:38:27;23.30;44.60
15543;DHT22;7873;52.230;12.856;2022-08-06T13:40:54;23.30;45.20
15543;DHT22;7873;52.230;12.856;2022-08-06T13:43:22;23.30;45.10
15543;DHT22;7873;52.230;12.856;2022-08-06T13:46:08;23.30;45.20
15543;DHT22;7873;52.230;12.856;2022-08-06T13:48:41;23.40;45.20
15543;DHT22;7873;52.230;12.856;2022-08-06T13:51:09;23.30;43.00
15543;DHT22;7873;52.230;12.856;2022-08-06T13:53:36;23.40;45.20
15543;DHT22;7873;52.230;12.856;2022-08-06T13:56:03;23.40;44.90
15543;DHT22;7873;52.230;12.856;2022-08-06T13:58:30;23.40;44.90
15543;DHT22;7873;52.230;12.856;2022-08-06T14:00:57;23.40;44.90
15543;DHT22;7873;52.230;12.856;2022-08-06T14:03:25;23.40;44.70
15543;DHT22;7873;52.230;12.856;2022-08-06T14:05:54;23.40;44.50
15543;DHT22;7873;52.230;12.856;2022-08-06T14:08:20;23.50;44.60
15543;DHT22;7873;52.230;12.856;2022-08-06T14:10:47;23.40;44.50
15543;DHT22;7873;52.230;12.856;2022-08-06T14:13:14;23.50;44.10
15543;DHT22;7873;52.230;12.856;2022-08-06T14:15:44;23.50;44.30
15543;DHT22;7873;52.230;12.856;2022-08-06T14:18:12;23.50;44.00
15543;DHT22;7873;52.230;12.856;2022-08-06T14:20:40;23.60;43.80
15543;DHT22;7873;52.230;12.856;2022-08-06T14:23:08;23.60;43.70
15543;DHT22;7873;52.230;12.856;2022-08-06T14:25:34;23.60;43.60
15543;DHT22;7873;52.230;12.856;2022-08-06T14:28:02;23.60;43.60
15543;DHT22;7873;52.230;12.856;2022-08-06T14:30:29;23.60;43.30
15543;DHT22;7873;52.230;12.856;2022-08-06T14:32:57;23.70;43.00
15543;DHT22;7873;52.230;12.856;2022-08-06T14:35:24;23.70;42.60
15543;DHT22;7873;52.230;12.856;2022-08-06T14:37:52;23.70;42.60
15543;DHT22;7873;52.230;12.856;2022-08-06T14:40:20;23.80;42.60
15543;DHT22;7873;52.230;12.856;2022-08-06T14:43:01;23.80;42.50
15543;DHT22;7873;52.230;12.856;2022-08-06T14:45:45;23.90;42.60
15543;DHT22;7873;52.230;12.856;2022-08-06T14:48:12;23.90;42.80
15543;DHT22;7873;52.230;12.856;2022-08-06T14:50:39;23.90;42.60
15543;DHT22;7873;52.230;12.856;2022-08-06T14:53:07;24.00;43.00
15543;DHT22;7873;52.230;12.856;2022-08-06T14:55:34;24.00;43.10
15543;DHT22;7873;52.230;12.856;2022-08-06T14:58:01;24.00;43.50
15543;DHT22;7873;52.230;12.856;2022-08-06T15:00:27;24.00;43.80
15543;DHT22;7873;52.230;12.856;2022-08-06T15:02:54;24.10;44.10
15543;DHT22;7873;52.230;12.856;2022-08-06T15:05:21;24.10;44.50
15543;DHT22;7873;52.230;12.856;2022-08-06T15:07:48;24.10;44.60
15543;DHT22;7873;52.230;12.856;2022-08-06T15:10:16;24.20;44.80
15543;DHT22;7873;52.230;12.856;2022-08-06T15:12:42;24.20;44.90
15543;DHT22;7873;52.230;12.856;2022-08-06T15:15:09;24.30;45.00
15543;DHT22;7873;52.230;12.856;2022-08-06T15:17:37;24.30;45.10
15543;DHT22;7873;52.230;12.856;2022-08-06T15:20:04;24.40;45.60
15543;DHT22;7873;52.230;12.856;2022-08-06T15:22:31;24.40;45.30
15543;DHT22;7873;52.230;12.856;2022-08-06T15:24:57;24.50;45.60
15543;DHT22;7873;52.230;12.856;2022-08-06T15:27:25;24.60;45.70
15543;DHT22;7873;52.230;12.856;2022-08-06T15:29:52;24.60;45.80
15543;DHT22;7873;52.230;12.856;2022-08-06T15:32:19;24.60;45.90
15543;DHT22;7873;52.230;12.856;2022-08-06T15:34:46;24.70;45.70
15543;DHT22;7873;52.230;12.856;2022-08-06T15:37:12;24.80;45.80
15543;DHT22;7873;52.230;12.856;2022-08-06T15:39:39;24.80;45.70
15543;DHT22;7873;52.230;12.856;2022-08-06T15:42:06;24.90;45.50
15543;DHT22;7873;52.230;12.856;2022-08-06T15:44:34;24.90;44.70
15543;DHT22;7873;52.230;12.856;2022-08-06T15:47:00;24.90;44.00
15543;DHT22;7873;52.230;12.856;2022-08-06T15:49:30;24.90;43.40
15543;DHT22;7873;52.230;12.856;2022-08-06T15:51:58;24.90;42.70
15543;DHT22;7873;52.230;12.856;2022-08-06T15:54:25;24.90;42.60
15543;DHT22;7873;52.230;12.856;2022-08-06T15:56:51;25.00;42.20
15543;DHT22;7873;52.230;12.856;2022-08-06T15:59:18;25.00;42.10